createdAt,value
2022-08-01T00:00:51.647Z,997.10
2022-08-01T00:01:51.686Z,997.15
2022-08-01T00:02:51.636Z,997.13
2022-08-01T00:03:51.617Z,997.13
2022-08-01T00:04:51.637Z,997.07
2022-08-01T00:05:51.613Z,997.08
2022-08-01T00:06:51.594Z,997.07
2022-08-01T00:07:51.588Z,997.04
2022-08-01T00:08:51.580Z,997.00
2022-08-01T00:09:51.613Z,997.04
2022-08-01T00:10:51.565Z,997.03
2022-08-01T00:11:59.521Z,997.01
2022-08-01T00:12:52.559Z,997.02
2022-08-01T00:13:51.543Z,997.04
2022-08-01T00:14:51.564Z,996.98
2022-08-01T00:15:54.359Z,997.05
2022-08-01T00:16:51.558Z,997.01
2022-08-01T00:17:51.505Z,997.06
2022-08-01T00:18:51.508Z,997.04
2022-08-01T00:19:51.517Z,997.00
2022-08-01T00:20:51.492Z,997.01
2022-08-01T00:21:52.084Z,996.97
2022-08-01T00:22:52.461Z,996.96
2022-08-01T00:23:52.460Z,996.98
2022-08-01T00:24:51.480Z,997.01
2022-08-01T00:25:51.446Z,997.02
2022-08-01T00:26:51.432Z,996.95
2022-08-01T00:27:51.424Z,996.92
2022-08-01T00:28:51.414Z,996.88
2022-08-01T00:30:13.999Z,996.87
2022-08-01T00:30:52.402Z,996.89
2022-08-01T00:31:51.423Z,996.88
2022-08-01T00:32:51.385Z,996.88
2022-08-01T00:33:51.377Z,996.89
2022-08-01T00:34:51.401Z,996.90
2022-08-01T00:35:51.363Z,996.91
2022-08-01T00:36:51.352Z,996.88
2022-08-01T00:37:51.339Z,996.83
2022-08-01T00:38:51.328Z,996.88
2022-08-01T00:39:51.350Z,996.83
2022-08-01T00:40:51.311Z,996.89
2022-08-01T00:41:59.849Z,996.86
2022-08-01T00:42:52.297Z,996.86
2022-08-01T00:43:51.293Z,996.83
2022-08-01T00:44:51.312Z,996.81
2022-08-01T00:45:51.269Z,996.83
2022-08-01T00:46:51.279Z,996.78
2022-08-01T00:47:55.307Z,996.83
2022-08-01T00:48:51.307Z,996.89
2022-08-01T00:49:51.273Z,996.80
2022-08-01T00:50:51.232Z,996.84
2022-08-01T00:51:51.224Z,996.79
2022-08-01T00:52:51.456Z,996.79
2022-08-01T00:53:52.428Z,996.83
2022-08-01T00:54:51.234Z,996.79
2022-08-01T00:55:51.197Z,996.80
2022-08-01T00:56:51.190Z,996.80
2022-08-01T00:58:05.813Z,996.79
2022-08-01T00:58:52.179Z,996.73
2022-08-01T00:59:51.193Z,996.74
2022-08-01T01:00:53.061Z,996.80
2022-08-01T01:01:51.188Z,996.73
2022-08-01T01:02:51.141Z,996.79
2022-08-01T01:03:59.701Z,996.74
2022-08-01T01:04:53.156Z,996.74
2022-08-01T01:05:51.112Z,996.75
2022-08-01T01:06:51.112Z,996.71
2022-08-01T01:07:51.099Z,996.69
2022-08-01T01:08:51.101Z,996.70
2022-08-01T01:09:51.120Z,996.63
2022-08-01T01:10:51.072Z,996.61
2022-08-01T01:11:51.067Z,996.64
2022-08-01T01:12:51.058Z,996.63
2022-08-01T01:13:51.179Z,996.64
2022-08-01T01:14:51.069Z,996.62
2022-08-01T01:15:51.043Z,996.60
2022-08-01T01:16:51.020Z,996.53
2022-08-01T01:17:52.034Z,996.56
2022-08-01T01:18:52.023Z,996.52
2022-08-01T01:19:51.046Z,996.62
2022-08-01T01:20:50.999Z,996.55
2022-08-01T01:21:50.998Z,996.63
2022-08-01T01:22:50.978Z,996.61
2022-08-01T01:23:50.979Z,996.56
2022-08-01T01:24:50.998Z,996.53
2022-08-01T01:25:50.960Z,996.60
2022-08-01T01:26:50.960Z,996.67
2022-08-01T01:27:50.943Z,996.67
2022-08-01T01:28:50.937Z,996.60
2022-08-01T01:29:59.899Z,996.63
2022-08-01T01:30:51.914Z,996.61
2022-08-01T01:31:50.920Z,996.55
2022-08-01T01:32:50.972Z,996.59
2022-08-01T01:33:50.895Z,996.56
2022-08-01T01:34:50.893Z,996.55
2022-08-01T01:35:50.915Z,996.58
2022-08-01T01:36:50.868Z,996.54
2022-08-01T01:37:50.876Z,996.52
2022-08-01T01:38:50.859Z,996.54
2022-08-01T01:39:54.392Z,996.52
2022-08-01T01:40:50.874Z,996.57
2022-08-01T01:41:50.832Z,996.48
2022-08-01T01:42:50.824Z,996.58
2022-08-01T01:43:50.823Z,996.58
2022-08-01T01:44:50.808Z,996.55
2022-08-01T01:45:50.834Z,996.56
2022-08-01T01:46:50.790Z,996.59
2022-08-01T01:47:50.789Z,996.61
2022-08-01T01:48:50.804Z,996.61
2022-08-01T01:49:50.765Z,996.58
2022-08-01T01:50:50.800Z,996.59
2022-08-01T01:52:01.968Z,996.64
2022-08-01T01:52:51.742Z,996.59
2022-08-01T01:53:50.744Z,996.62
2022-08-01T01:54:50.731Z,996.57
2022-08-01T01:55:50.751Z,996.64
2022-08-01T01:56:50.716Z,996.60
2022-08-01T01:57:50.713Z,996.63
2022-08-01T01:58:50.696Z,996.58
2022-08-01T01:59:50.691Z,996.56
2022-08-01T02:00:50.711Z,996.61
2022-08-01T02:01:58.263Z,996.59
2022-08-01T02:02:51.789Z,996.55
2022-08-01T02:03:50.654Z,996.49
2022-08-01T02:04:50.656Z,996.55
2022-08-01T02:05:50.677Z,996.53
2022-08-01T02:06:50.633Z,996.49
2022-08-01T02:07:50.636Z,996.52
2022-08-01T02:08:50.623Z,996.51
2022-08-01T02:09:50.614Z,996.51
2022-08-01T02:10:50.643Z,996.56
2022-08-01T02:12:08.442Z,996.59
2022-08-01T02:12:51.582Z,996.55
2022-08-01T02:13:50.578Z,996.55
2022-08-01T02:14:50.567Z,996.54
2022-08-01T02:16:00.008Z,996.53
2022-08-01T02:16:51.560Z,996.53
2022-08-01T02:17:50.548Z,996.59
2022-08-01T02:18:50.535Z,996.54
2022-08-01T02:19:50.525Z,996.52
2022-08-01T02:20:50.549Z,996.58
2022-08-01T02:21:50.512Z,996.54
2022-08-01T02:22:50.506Z,996.56
2022-08-01T02:23:50.496Z,996.49
2022-08-01T02:24:50.488Z,996.53
2022-08-01T02:26:10.748Z,996.63
2022-08-01T02:26:51.476Z,996.58
2022-08-01T02:27:50.467Z,996.64
2022-08-01T02:28:50.460Z,996.55
2022-08-01T02:29:50.447Z,996.55
2022-08-01T02:30:50.485Z,996.63
2022-08-01T02:31:50.433Z,996.58
2022-08-01T02:32:50.429Z,996.63
2022-08-01T02:33:50.411Z,996.59
2022-08-01T02:34:51.409Z,996.61
2022-08-01T02:36:29.052Z,996.67
2022-08-01T02:36:51.399Z,996.60
2022-08-01T02:37:50.397Z,996.57
2022-08-01T02:38:50.376Z,996.53
2022-08-01T02:39:51.366Z,996.64
2022-08-01T02:40:50.390Z,996.57
2022-08-01T02:41:50.359Z,996.61
2022-08-01T02:42:50.356Z,996.59
2022-08-01T02:43:53.455Z,996.62
2022-08-01T02:44:50.325Z,996.63
2022-08-01T02:45:50.354Z,996.60
2022-08-01T02:46:50.321Z,996.62
2022-08-01T02:47:50.308Z,996.62
2022-08-01T02:48:50.372Z,996.63
2022-08-01T02:49:53.735Z,996.64
2022-08-01T02:50:50.308Z,996.70
2022-08-01T02:51:50.286Z,996.66
2022-08-01T02:52:50.259Z,996.67
2022-08-01T02:53:50.252Z,996.67
2022-08-01T02:54:50.247Z,996.67
2022-08-01T02:55:50.266Z,996.73
2022-08-01T02:56:50.226Z,996.70
2022-08-01T02:57:52.546Z,996.64
2022-08-01T02:58:51.217Z,996.66
2022-08-01T02:59:50.203Z,996.64
2022-08-01T03:00:50.224Z,996.68
2022-08-01T03:01:50.231Z,996.71
2022-08-01T03:02:50.173Z,996.70
2022-08-01T03:03:50.163Z,996.73
2022-08-01T03:04:53.951Z,996.68
2022-08-01T03:05:52.175Z,996.80
2022-08-01T03:06:50.147Z,996.79
2022-08-01T03:07:50.132Z,996.65
2022-08-01T03:08:50.126Z,996.74
2022-08-01T03:09:50.118Z,996.69
2022-08-01T03:10:50.139Z,996.68
2022-08-01T03:11:50.103Z,996.74
2022-08-01T03:12:50.098Z,996.71
2022-08-01T03:13:50.102Z,996.73
2022-08-01T03:14:50.387Z,996.74
2022-08-01T03:15:50.068Z,996.76
2022-08-01T03:16:50.109Z,996.72
2022-08-01T03:17:50.075Z,996.73
2022-08-01T03:18:50.054Z,996.73
2022-08-01T03:19:50.047Z,996.71
2022-08-01T03:20:50.039Z,996.66
2022-08-01T03:21:50.050Z,996.75
2022-08-01T03:22:50.021Z,996.76
2022-08-01T03:23:53.491Z,996.76
2022-08-01T03:24:52.016Z,996.79
2022-08-01T03:25:49.998Z,996.69
2022-08-01T03:26:50.022Z,996.76
2022-08-01T03:27:49.985Z,996.76
2022-08-01T03:28:49.974Z,996.79
2022-08-01T03:29:49.970Z,996.80
2022-08-01T03:30:49.951Z,996.83
2022-08-01T03:31:49.975Z,996.77
2022-08-01T03:32:49.940Z,996.78
2022-08-01T03:33:49.933Z,996.75
2022-08-01T03:34:49.926Z,996.79
2022-08-01T03:35:49.922Z,996.79
2022-08-01T03:36:50.135Z,996.85
2022-08-01T03:38:14.839Z,996.78
2022-08-01T03:38:51.894Z,996.77
2022-08-01T03:39:49.880Z,996.78
2022-08-01T03:40:49.876Z,996.83
2022-08-01T03:41:52.554Z,996.83
2022-08-01T03:42:50.859Z,996.81
2022-08-01T03:43:49.855Z,996.82
2022-08-01T03:44:49.851Z,996.80
2022-08-01T03:45:49.839Z,996.79
2022-08-01T03:46:49.861Z,996.83
2022-08-01T03:47:49.817Z,996.88
2022-08-01T03:48:49.860Z,996.90
2022-08-01T03:49:49.806Z,996.91
2022-08-01T03:50:49.797Z,996.86
2022-08-01T03:51:49.827Z,996.89
2022-08-01T03:52:49.777Z,996.86
2022-08-01T03:53:49.795Z,996.82
2022-08-01T03:54:49.759Z,996.86
2022-08-01T03:55:49.753Z,996.85
2022-08-01T03:56:49.772Z,996.85
2022-08-01T03:57:49.737Z,996.85
2022-08-01T03:58:50.279Z,996.82
2022-08-01T03:59:49.724Z,996.84
2022-08-01T04:00:49.717Z,996.88
2022-08-01T04:01:49.797Z,996.85
2022-08-01T04:02:49.710Z,996.83
2022-08-01T04:03:49.687Z,996.82
2022-08-01T04:04:49.677Z,996.79
2022-08-01T04:05:49.674Z,996.85
2022-08-01T04:06:49.696Z,996.82
2022-08-01T04:07:49.661Z,996.81
2022-08-01T04:08:49.658Z,996.81
2022-08-01T04:09:49.643Z,996.87
2022-08-01T04:10:50.449Z,996.86
2022-08-01T04:11:49.660Z,996.83
2022-08-01T04:12:49.622Z,996.89
2022-08-01T04:13:49.613Z,996.87
2022-08-01T04:14:49.589Z,996.90
2022-08-01T04:15:50.592Z,996.93
2022-08-01T04:16:49.594Z,996.91
2022-08-01T04:17:49.603Z,996.89
2022-08-01T04:18:49.568Z,996.91
2022-08-01T04:19:49.564Z,996.89
2022-08-01T04:20:49.568Z,996.96
2022-08-01T04:21:49.547Z,996.92
2022-08-01T04:22:49.562Z,996.92
2022-08-01T04:23:51.333Z,996.93
2022-08-01T04:24:53.315Z,996.94
2022-08-01T04:25:51.510Z,996.96
2022-08-01T04:26:49.508Z,996.99
2022-08-01T04:27:51.770Z,997.03
2022-08-01T04:28:49.486Z,997.03
2022-08-01T04:29:49.471Z,997.05
2022-08-01T04:30:49.489Z,997.05
2022-08-01T04:31:49.468Z,997.04
2022-08-01T04:32:49.479Z,997.01
2022-08-01T04:33:49.444Z,997.13
2022-08-01T04:34:49.436Z,997.12
2022-08-01T04:36:03.541Z,997.09
2022-08-01T04:36:50.407Z,997.09
2022-08-01T04:37:49.451Z,997.16
2022-08-01T04:38:49.402Z,997.19
2022-08-01T04:39:51.014Z,997.12
2022-08-01T04:40:49.402Z,997.20
2022-08-01T04:41:49.368Z,997.18
2022-08-01T04:42:49.453Z,997.16
2022-08-01T04:43:49.354Z,997.19
2022-08-01T04:44:49.347Z,997.20
2022-08-01T04:45:49.342Z,997.22
2022-08-01T04:46:49.369Z,997.14
2022-08-01T04:47:49.366Z,997.20
2022-08-01T04:48:49.367Z,997.19
2022-08-01T04:49:49.551Z,997.16
2022-08-01T04:50:49.301Z,997.18
2022-08-01T04:51:49.295Z,997.18
2022-08-01T04:52:49.314Z,997.18
2022-08-01T04:53:49.277Z,997.09
2022-08-01T04:54:49.270Z,997.12
2022-08-01T04:55:49.266Z,997.13
2022-08-01T04:56:49.255Z,997.13
2022-08-01T04:57:49.282Z,997.14
2022-08-01T04:58:49.243Z,997.12
2022-08-01T04:59:49.233Z,997.17
2022-08-01T05:00:49.295Z,997.16
2022-08-01T05:01:49.268Z,997.21
2022-08-01T05:02:50.238Z,997.17
2022-08-01T05:03:49.195Z,997.23
2022-08-01T05:04:49.261Z,997.20
2022-08-01T05:05:49.175Z,997.25
2022-08-01T05:06:49.169Z,997.25
2022-08-01T05:07:49.199Z,997.25
2022-08-01T05:08:49.183Z,997.27
2022-08-01T05:09:49.153Z,997.22
2022-08-01T05:10:49.144Z,997.24
2022-08-01T05:11:49.121Z,997.26
2022-08-01T05:12:50.157Z,997.28
2022-08-01T05:13:49.116Z,997.19
2022-08-01T05:14:49.166Z,997.19
2022-08-01T05:15:49.122Z,997.18
2022-08-01T05:16:49.094Z,997.24
2022-08-01T05:17:49.117Z,997.18
2022-08-01T05:18:49.077Z,997.18
2022-08-01T05:19:49.151Z,997.13
2022-08-01T05:20:49.081Z,997.17
2022-08-01T05:21:49.046Z,997.15
2022-08-01T05:22:49.085Z,997.16
2022-08-01T05:23:49.048Z,997.20
2022-08-01T05:24:49.190Z,997.11
2022-08-01T05:25:56.408Z,997.17
2022-08-01T05:26:50.038Z,997.16
2022-08-01T05:27:50.811Z,997.14
2022-08-01T05:28:48.994Z,997.25
2022-08-01T05:29:48.989Z,997.21
2022-08-01T05:30:48.974Z,997.29
2022-08-01T05:31:48.974Z,997.27
2022-08-01T05:32:48.992Z,997.31
2022-08-01T05:33:48.950Z,997.31
2022-08-01T05:34:48.944Z,997.30
2022-08-01T05:35:49.468Z,997.35
2022-08-01T05:36:52.910Z,997.36
2022-08-01T05:37:49.949Z,997.36
2022-08-01T05:38:48.918Z,997.39
2022-08-01T05:39:48.906Z,997.32
2022-08-01T05:40:48.890Z,997.32
2022-08-01T05:41:48.886Z,997.38
2022-08-01T05:42:48.900Z,997.36
2022-08-01T05:43:48.887Z,997.42
2022-08-01T05:44:48.860Z,997.36
2022-08-01T05:45:48.854Z,997.43
2022-08-01T05:46:48.844Z,997.41
2022-08-01T05:47:48.871Z,997.38
2022-08-01T05:48:48.889Z,997.44
2022-08-01T05:49:48.818Z,997.41
2022-08-01T05:50:48.826Z,997.36
2022-08-01T05:51:48.830Z,997.44
2022-08-01T05:52:48.834Z,997.44
2022-08-01T05:53:48.796Z,997.46
2022-08-01T05:54:48.805Z,997.39
2022-08-01T05:55:48.784Z,997.42
2022-08-01T05:56:48.759Z,997.42
2022-08-01T05:57:48.793Z,997.42
2022-08-01T05:58:48.741Z,997.36
2022-08-01T05:59:48.776Z,997.42
2022-08-01T06:00:48.724Z,997.42
2022-08-01T06:01:48.748Z,997.50
2022-08-01T06:02:48.713Z,997.52
2022-08-01T06:03:48.737Z,997.50
2022-08-01T06:04:48.685Z,997.55
2022-08-01T06:05:48.684Z,997.47
2022-08-01T06:06:48.685Z,997.53
2022-08-01T06:07:48.697Z,997.51
2022-08-01T06:08:48.697Z,997.45
2022-08-01T06:09:48.668Z,997.46
2022-08-01T06:10:48.639Z,997.44
2022-08-01T06:11:48.641Z,997.43
2022-08-01T06:12:48.637Z,997.44
2022-08-01T06:13:49.095Z,997.40
2022-08-01T06:14:48.612Z,997.38
2022-08-01T06:15:48.619Z,997.45
2022-08-01T06:16:48.593Z,997.48
2022-08-01T06:17:48.587Z,997.48
2022-08-01T06:18:48.607Z,997.50
2022-08-01T06:19:48.567Z,997.52
2022-08-01T06:20:48.560Z,997.53
2022-08-01T06:21:48.549Z,997.50
2022-08-01T06:22:51.724Z,997.50
2022-08-01T06:23:48.567Z,997.51
2022-08-01T06:24:48.526Z,997.59
2022-08-01T06:25:48.522Z,997.51
2022-08-01T06:26:48.519Z,997.57
2022-08-01T06:27:48.522Z,997.56
2022-08-01T06:28:48.523Z,997.63
2022-08-01T06:29:53.478Z,997.53
2022-08-01T06:30:49.485Z,997.57
2022-08-01T06:31:48.496Z,997.58
2022-08-01T06:32:48.471Z,997.56
2022-08-01T06:33:48.485Z,997.59
2022-08-01T06:34:48.443Z,997.60
2022-08-01T06:35:48.434Z,997.61
2022-08-01T06:36:48.454Z,997.62
2022-08-01T06:37:48.419Z,997.59
2022-08-01T06:38:48.448Z,997.59
2022-08-01T06:39:48.398Z,997.59
2022-08-01T06:40:48.399Z,997.53
2022-08-01T06:41:48.388Z,997.51
2022-08-01T06:42:48.387Z,997.57
2022-08-01T06:44:20.311Z,997.50
2022-08-01T06:44:48.375Z,997.64
2022-08-01T06:45:48.363Z,997.62
2022-08-01T06:46:48.349Z,997.62
2022-08-01T06:47:50.558Z,997.64
2022-08-01T06:48:48.435Z,997.62
2022-08-01T06:49:48.327Z,997.65
2022-08-01T06:50:48.327Z,997.64
2022-08-01T06:51:48.340Z,997.64
2022-08-01T06:52:48.304Z,997.65
2022-08-01T06:53:48.337Z,997.69
2022-08-01T06:54:48.302Z,997.67
2022-08-01T06:55:48.280Z,997.70
2022-08-01T06:56:48.267Z,997.76
2022-08-01T06:57:48.265Z,997.70
2022-08-01T06:58:48.304Z,997.67
2022-08-01T06:59:51.956Z,997.77
2022-08-01T07:00:49.336Z,997.74
2022-08-01T07:01:48.234Z,997.70
2022-08-01T07:02:48.225Z,997.73
2022-08-01T07:03:52.689Z,997.76
2022-08-01T07:04:49.249Z,997.75
2022-08-01T07:05:48.204Z,997.76
2022-08-01T07:06:48.192Z,997.77
2022-08-01T07:07:48.194Z,997.79
2022-08-01T07:08:48.176Z,997.82
2022-08-01T07:09:48.204Z,997.81
2022-08-01T07:10:48.162Z,997.83
2022-08-01T07:11:48.150Z,997.87
2022-08-01T07:12:48.151Z,997.83
2022-08-01T07:13:48.134Z,997.82
2022-08-01T07:14:48.184Z,997.78
2022-08-01T07:15:48.130Z,997.89
2022-08-01T07:16:48.113Z,997.92
2022-08-01T07:17:48.110Z,997.87
2022-08-01T07:18:48.094Z,997.82
2022-08-01T07:19:48.126Z,997.89
2022-08-01T07:20:52.771Z,997.96
2022-08-01T07:21:49.402Z,997.87
2022-08-01T07:22:48.211Z,997.95
2022-08-01T07:23:48.075Z,997.84
2022-08-01T07:24:48.080Z,997.92
2022-08-01T07:25:50.826Z,997.79
2022-08-01T07:26:54.427Z,997.83
2022-08-01T07:27:49.032Z,997.82
2022-08-01T07:28:48.010Z,997.76
2022-08-01T07:29:48.036Z,997.79
2022-08-01T07:30:47.995Z,997.76
2022-08-01T07:31:48.014Z,997.79
2022-08-01T07:32:47.984Z,997.83
2022-08-01T07:33:49.259Z,997.88
2022-08-01T07:34:48.013Z,997.85
2022-08-01T07:35:47.956Z,997.85
2022-08-01T07:36:47.970Z,997.85
2022-08-01T07:37:49.226Z,997.85
2022-08-01T07:38:47.942Z,997.76
2022-08-01T07:39:47.964Z,997.74
2022-08-01T07:40:47.935Z,997.83
2022-08-01T07:42:05.973Z,997.79
2022-08-01T07:42:48.895Z,997.80
2022-08-01T07:43:57.149Z,997.85
2022-08-01T07:44:49.924Z,997.83
2022-08-01T07:45:47.897Z,997.88
2022-08-01T07:46:47.900Z,997.84
2022-08-01T07:47:47.870Z,997.87
2022-08-01T07:48:47.869Z,997.83
2022-08-01T07:49:48.001Z,997.85
2022-08-01T07:50:47.828Z,997.82
2022-08-01T07:52:03.694Z,997.80
2022-08-01T07:52:48.815Z,997.87
2022-08-01T07:53:47.807Z,997.89
2022-08-01T07:54:52.133Z,997.90
2022-08-01T07:55:48.805Z,997.88
2022-08-01T07:56:47.794Z,997.88
2022-08-01T07:57:47.790Z,997.84
2022-08-01T07:58:47.787Z,997.82
2022-08-01T07:59:47.804Z,997.84
2022-08-01T08:00:47.755Z,997.81
2022-08-01T08:01:47.864Z,997.85
2022-08-01T08:02:47.745Z,997.84
2022-08-01T08:03:47.757Z,997.88
2022-08-01T08:04:49.281Z,997.83
2022-08-01T08:05:58.698Z,997.88
2022-08-01T08:06:48.732Z,997.80
2022-08-01T08:07:47.710Z,997.84
2022-08-01T08:08:47.704Z,997.91
2022-08-01T08:09:51.236Z,997.89
2022-08-01T08:10:47.680Z,997.85
2022-08-01T08:11:48.455Z,997.86
2022-08-01T08:12:48.667Z,997.86
2022-08-01T08:13:47.686Z,997.91
2022-08-01T08:14:47.676Z,997.90
2022-08-01T08:15:48.563Z,997.88
2022-08-01T08:16:47.646Z,997.87
2022-08-01T08:17:52.610Z,997.82
2022-08-01T08:18:48.612Z,997.87
2022-08-01T08:19:47.651Z,997.81
2022-08-01T08:20:47.594Z,997.85
2022-08-01T08:21:47.594Z,997.82
2022-08-01T08:22:47.585Z,997.81
2022-08-01T08:23:47.603Z,997.83
2022-08-01T08:24:47.599Z,997.83
2022-08-01T08:25:47.576Z,997.87
2022-08-01T08:26:47.571Z,997.84
2022-08-01T08:27:47.549Z,997.81
2022-08-01T08:28:47.542Z,997.77
2022-08-01T08:29:47.562Z,997.84
2022-08-01T08:30:47.525Z,997.80
2022-08-01T08:31:51.947Z,997.88
2022-08-01T08:32:48.515Z,997.82
2022-08-01T08:33:47.539Z,997.91
2022-08-01T08:34:47.533Z,997.88
2022-08-01T08:35:54.224Z,997.86
2022-08-01T08:36:48.487Z,997.87
2022-08-01T08:37:49.186Z,997.89
2022-08-01T08:38:47.463Z,997.80
2022-08-01T08:39:47.494Z,997.89
2022-08-01T08:40:47.440Z,997.87
2022-08-01T08:41:49.438Z,997.90
2022-08-01T08:42:47.459Z,997.90
2022-08-01T08:43:47.413Z,997.89
2022-08-01T08:44:47.447Z,997.87
2022-08-01T08:45:59.247Z,997.88
2022-08-01T08:46:48.408Z,997.80
2022-08-01T08:47:47.394Z,997.85
2022-08-01T08:48:47.526Z,997.87
2022-08-01T08:49:49.424Z,997.85
2022-08-01T08:50:47.408Z,997.90
2022-08-01T08:51:47.363Z,997.92
2022-08-01T08:52:47.356Z,997.84
2022-08-01T08:53:47.344Z,997.85
2022-08-01T08:54:47.342Z,997.80
2022-08-01T08:55:56.232Z,997.83
2022-08-01T08:56:48.313Z,997.76
2022-08-01T08:57:47.335Z,997.83
2022-08-01T08:58:47.306Z,997.80
2022-08-01T08:59:47.311Z,997.82
2022-08-01T09:00:48.324Z,997.81
2022-08-01T09:01:47.276Z,997.79
2022-08-01T09:02:47.327Z,997.79
2022-08-01T09:03:47.272Z,997.78
2022-08-01T09:04:47.267Z,997.81
2022-08-01T09:05:47.279Z,997.86
2022-08-01T09:06:47.241Z,997.88
2022-08-01T09:07:47.242Z,997.96
2022-08-01T09:08:47.231Z,997.91
2022-08-01T09:09:47.246Z,997.95
2022-08-01T09:10:47.244Z,997.92
2022-08-01T09:11:57.458Z,997.91
2022-08-01T09:12:48.199Z,997.95
2022-08-01T09:13:47.273Z,997.98
2022-08-01T09:14:47.239Z,997.96
2022-08-01T09:15:47.211Z,997.96
2022-08-01T09:16:49.020Z,997.93
2022-08-01T09:17:48.158Z,997.85
2022-08-01T09:18:53.687Z,997.84
2022-08-01T09:19:48.142Z,997.84
2022-08-01T09:20:47.157Z,997.89
2022-08-01T09:21:47.144Z,997.84
2022-08-01T09:22:47.959Z,997.90
2022-08-01T09:23:54.285Z,997.88
2022-08-01T09:24:48.139Z,997.78
2022-08-01T09:25:47.950Z,997.91
2022-08-01T09:26:47.095Z,997.97
2022-08-01T09:27:47.078Z,997.94
2022-08-01T09:28:47.976Z,997.90
2022-08-01T09:29:49.836Z,997.92
2022-08-01T09:30:48.072Z,997.91
2022-08-01T09:31:47.618Z,997.95
2022-08-01T09:32:47.037Z,997.89
2022-08-01T09:33:47.034Z,997.95
2022-08-01T09:34:47.045Z,997.95
2022-08-01T09:35:48.003Z,997.96
2022-08-01T09:36:47.029Z,997.98
2022-08-01T09:37:47.368Z,997.90
2022-08-01T09:38:51.035Z,997.94
2022-08-01T09:39:47.980Z,997.94
2022-08-01T09:40:46.998Z,997.89
2022-08-01T09:41:46.965Z,997.88
2022-08-01T09:42:46.952Z,997.99
2022-08-01T09:43:46.949Z,997.97
2022-08-01T09:44:54.643Z,998.04
2022-08-01T09:45:50.704Z,997.89
2022-08-01T09:46:46.945Z,997.97
2022-08-01T09:47:46.941Z,997.94
2022-08-01T09:48:49.330Z,997.97
2022-08-01T09:49:52.109Z,997.98
2022-08-01T09:50:47.921Z,997.93
2022-08-01T09:51:59.529Z,997.97
2022-08-01T09:52:47.881Z,997.94
2022-08-01T09:53:51.442Z,997.94
2022-08-01T09:54:47.872Z,997.85
2022-08-01T09:55:46.889Z,998.00
2022-08-01T09:56:46.850Z,997.92
2022-08-01T09:57:46.861Z,997.94
2022-08-01T09:58:46.835Z,997.94
2022-08-01T09:59:58.247Z,997.98
2022-08-01T10:00:48.853Z,997.96
2022-08-01T10:01:46.819Z,997.92
2022-08-01T10:02:46.808Z,997.95
2022-08-01T10:03:46.867Z,997.91
2022-08-01T10:04:46.794Z,997.93
2022-08-01T10:05:49.940Z,997.96
2022-08-01T10:06:46.785Z,997.92
2022-08-01T10:07:46.779Z,997.83
2022-08-01T10:08:46.755Z,997.83
2022-08-01T10:09:46.761Z,997.84
2022-08-01T10:10:46.740Z,997.82
2022-08-01T10:11:46.754Z,997.83
2022-08-01T10:12:47.711Z,997.83
2022-08-01T10:13:46.715Z,997.78
2022-08-01T10:14:46.888Z,997.77
2022-08-01T10:15:46.697Z,997.82
2022-08-01T10:16:46.751Z,997.78
2022-08-01T10:17:50.274Z,997.73
2022-08-01T10:18:46.680Z,997.75
2022-08-01T10:19:46.693Z,997.68
2022-08-01T10:20:46.670Z,997.71
2022-08-01T10:21:57.744Z,997.71
2022-08-01T10:22:47.648Z,997.73
2022-08-01T10:23:46.637Z,997.72
2022-08-01T10:24:46.636Z,997.70
2022-08-01T10:25:47.326Z,997.62
2022-08-01T10:26:46.662Z,997.70
2022-08-01T10:27:46.612Z,997.64
2022-08-01T10:28:46.619Z,997.71
2022-08-01T10:30:05.565Z,997.60
2022-08-01T10:30:48.708Z,997.62
2022-08-01T10:31:50.574Z,997.60
2022-08-01T10:32:50.535Z,997.59
2022-08-01T10:33:51.637Z,997.58
2022-08-01T10:34:47.585Z,997.55
2022-08-01T10:35:48.175Z,997.59
2022-08-01T10:36:47.584Z,997.55
2022-08-01T10:37:52.205Z,997.55
2022-08-01T10:38:47.543Z,997.50
2022-08-01T10:39:47.004Z,997.49
2022-08-01T10:40:47.537Z,997.51
2022-08-01T10:41:46.550Z,997.47
2022-08-01T10:42:46.533Z,997.53
2022-08-01T10:43:47.098Z,997.55
2022-08-01T10:44:46.494Z,997.51
2022-08-01T10:45:46.498Z,997.53
2022-08-01T10:46:46.535Z,997.43
2022-08-01T10:47:50.731Z,997.41
2022-08-01T10:48:46.469Z,997.50
2022-08-01T10:49:46.471Z,997.51
2022-08-01T10:50:48.433Z,997.46
2022-08-01T10:51:52.358Z,997.49
2022-08-01T10:52:47.438Z,997.48
2022-08-01T10:53:46.437Z,997.42
2022-08-01T10:54:52.499Z,997.50
2022-08-01T10:55:47.424Z,997.48
2022-08-01T10:56:46.465Z,997.42
2022-08-01T10:57:52.673Z,997.46
2022-08-01T10:58:47.403Z,997.36
2022-08-01T10:59:50.726Z,997.38
2022-08-01T11:00:47.388Z,997.33
2022-08-01T11:01:46.427Z,997.33
2022-08-01T11:02:46.374Z,997.32
2022-08-01T11:03:57.057Z,997.33
2022-08-01T11:04:48.359Z,997.23
2022-08-01T11:05:46.353Z,997.18
2022-08-01T11:06:46.374Z,997.27
2022-08-01T11:07:46.361Z,997.20
2022-08-01T11:08:46.335Z,997.10
2022-08-01T11:09:51.354Z,997.16
2022-08-01T11:10:48.322Z,997.18
2022-08-01T11:11:46.350Z,997.17
2022-08-01T11:12:46.314Z,997.17
2022-08-01T11:13:46.293Z,997.21
2022-08-01T11:14:55.743Z,997.24
2022-08-01T11:15:50.520Z,997.24
2022-08-01T11:16:46.313Z,997.24
2022-08-01T11:17:46.296Z,997.22
2022-08-01T11:18:46.280Z,997.15
2022-08-01T11:19:46.270Z,997.18
2022-08-01T11:20:46.255Z,997.16
2022-08-01T11:21:58.127Z,997.21
2022-08-01T11:22:47.246Z,997.17
2022-08-01T11:23:46.239Z,997.17
2022-08-01T11:24:46.247Z,997.14
2022-08-01T11:26:05.441Z,997.11
2022-08-01T11:26:47.241Z,997.10
2022-08-01T11:27:46.206Z,997.09
2022-08-01T11:29:11.009Z,997.12
2022-08-01T11:29:48.195Z,997.15
2022-08-01T11:30:46.187Z,997.09
2022-08-01T11:31:46.223Z,997.14
2022-08-01T11:33:06.644Z,997.12
2022-08-01T11:33:48.176Z,997.13
2022-08-01T11:34:46.183Z,997.17
2022-08-01T11:35:46.149Z,997.18
2022-08-01T11:37:01.415Z,997.17
2022-08-01T11:37:48.171Z,997.14
2022-08-01T11:38:46.131Z,997.09
2022-08-01T11:39:46.131Z,997.20
2022-08-01T11:40:46.118Z,997.25
2022-08-01T11:41:46.114Z,997.25
2022-08-01T11:42:46.126Z,997.17
2022-08-01T11:43:46.091Z,997.15
2022-08-01T11:44:46.108Z,997.09
2022-08-01T11:45:46.077Z,997.22
2022-08-01T11:46:46.084Z,997.11
2022-08-01T11:47:46.115Z,997.16
2022-08-01T11:48:46.057Z,997.09
2022-08-01T11:49:49.372Z,997.08
2022-08-01T11:50:46.043Z,997.06
2022-08-01T11:51:46.033Z,997.03
2022-08-01T11:52:46.070Z,997.01
2022-08-01T11:53:46.030Z,997.04
2022-08-01T11:54:46.039Z,996.97
2022-08-01T11:55:51.155Z,997.03
2022-08-01T11:56:48.065Z,997.01
2022-08-01T11:57:46.044Z,997.12
2022-08-01T11:58:46.001Z,997.08
2022-08-01T11:59:45.992Z,997.08
2022-08-01T12:00:47.127Z,996.99
2022-08-01T12:01:45.969Z,997.02
2022-08-01T12:02:46.246Z,996.95
2022-08-01T12:03:46.060Z,996.97
2022-08-01T12:04:45.968Z,996.91
2022-08-01T12:05:45.940Z,996.87
2022-08-01T12:06:45.939Z,996.96
2022-08-01T12:07:46.982Z,996.95
2022-08-01T12:08:45.930Z,996.96
2022-08-01T12:09:45.951Z,996.94
2022-08-01T12:10:47.257Z,996.95
2022-08-01T12:11:45.905Z,996.92
2022-08-01T12:12:45.925Z,996.87
2022-08-01T12:13:45.899Z,996.85
2022-08-01T12:14:45.887Z,996.89
2022-08-01T12:15:45.883Z,996.85
2022-08-01T12:16:45.878Z,996.82
2022-08-01T12:17:57.563Z,996.81
2022-08-01T12:18:46.862Z,996.80
2022-08-01T12:19:45.872Z,996.82
2022-08-01T12:20:56.172Z,996.77
2022-08-01T12:21:47.840Z,996.76
2022-08-01T12:22:45.858Z,996.72
2022-08-01T12:23:45.824Z,996.76
2022-08-01T12:24:45.814Z,996.71
2022-08-01T12:25:45.803Z,996.75
2022-08-01T12:26:45.795Z,996.79
2022-08-01T12:27:45.837Z,996.78
2022-08-01T12:28:45.791Z,996.72